En poursuivant votre navigation sur ce site, vous acceptez l'utilisation de cookies pour vous proposer des contenus et services adaptés. Mentions légales.
  

21/09/2020 Retour sur un épisode de chaleur exceptionnel en septembre : CLIQUEZ ICI
21/09/2020  Mise à jour des tableaux d'analyses décadaires : rubrique climatologie
02/09/2020 Mise en ligne de la synthèse climatologique d'août 2020 : 
CLIQUEZ ICI
01/09/2020  Mise à jour des tableaux d'analyses décadaires, mensuelles et annuelles : rubrique climatologie   

NOAA COMPLET DU MOIS

Si l'entête du tableau ne s'affiche pas correctement, => actualisez la page (F5 avec Internet Explorer, Chrome...).
Utilisez l'ascenseur sur la droite des lignes du tableau pour faire défiler verticalement les jours du mois.

TABLEAU DES DONNEES COMPLETES NOAA de JUILLET 2020

DATE TEMPERATURE
sous abri
TEMPARATURE 
au sol
VENT  et  Indice de Refroidissement Eolien  PRECIPITATIONS (en mm/m2)
et Intensité
PRESSION ATMOSPHERIQUE (en hPa) HUMIDITE de l'AIR RADIATIONS SOLAIRES (en W/m2)
Mini Moy. Maxi Mini Moy. Maxi Moyen Rafale I.R.E.
Minii
Précip. jour Cumul mois Intensité Maxi Mini Moy. Maxi Mini Moy. Maxi Pic maxi du jour Total jour
01/07/20 15.8° 22.1° 31.3° 15° 23° 34.4° 3.5km/h dir SSO 38.6km/h dir SO 15.9° 22.2 22.2 94.4mm/h 1008.9 1010.5 1012.4 48% 76.2% 96% 1151 81 238
02/07/20 16.9° 20.6° 25.7° 16.1° 22.7° 31.7° 4.3km/h dir O 27.4km/h dir O 17.1° 0.2 22.4 1012.1 1014.1 1017.3 59% 79.8% 96% 1216 53 756
03/07/20 12.4° 18.8° 24.3° 12.2° 19.9° 28.9° 6.1km/h dir ONO 29km/h dir OSO 12.5° 0 22.4 1017.3 1018.5 1019.9 45% 69.1% 93% 1206 85 518
04/07/20 10.9° 19.4° 26.7° 10.6° 20.1° 30° 3.1km/h dir O 19.3km/h dir NNE 10.9° 0 22.4 1019.1 1020.5 1021.8 39% 67.9% 94% 923 95 406
05/07/20 14.8° 22.3° 29.6° 13.9° 22.8° 33.9° 2.1km/h dir O 17.7km/h dir O 14.8° 0 22.4 1016.2 1018.9 1020.9 50% 71.6% 90% 1197 85 582
06/07/20 16° 20.6° 25.2° 14.4° 20.8° 29.4° 6.3km/h dir ONO 29km/h dir O 16.1° 0 22.4 1016.6 1017.9 1020 36% 68.8% 93% 1151 74 512
07/07/20 10.2° 18.6° 25.6° 7.8° 18.5° 28.9° 7.2km/h dir ONO 32.2km/h dir ONO 10.2° 0 22.4 1016.8 1018.4 1019.9 34% 58.2% 85% 933 96 120
08/07/20 10.3° 20.4° 29.1° 8.9° 20.5° 32.2° 2.6km/h dir NNE 16.1km/h dir O 10.3° 0 22.4 1015.8 1017.2 1018.2 35% 62.7% 92% 944 94 839
09/07/20 12.8° 24.1° 34.1° 11.7° 23.9° 37.2° 1.4km/h dir SSO 16.1km/h dir SSO 12.8° 0 22.4 1012 1014.9 1016.8 27% 60.1% 92% 940 94 002
10/07/20 17.4° 23.5° 30.4° 16.1° 23.7° 35° 4.7km/h dir O 27.4km/h dir O 17.4° 18 40.4 88mm/h 1013 1014.1 1017.6 45% 65.5% 94% 1069 82 531
11/07/20 16.2° 20.4° 25.4° 17.2° 22.2° 29.4° 8km/h dir ONO 30.6km/h dir ONO 16.2° 1.4 41.8 27mm/h 1017.4 1019.5 1020.7 38% 68.5% 95% 1041 92 374
12/07/20 11.7° 20.4° 28.3° 10.6° 21.2° 31.7° 6.8km/h dir ONO 27.4km/h dir ONO 11.7° 0 41.8 1017.9 1019.5 1021 40% 58% 80% 918 94 025
13/07/20 11.9° 20.5° 28.5° 10.6° 20.5° 32.2° 2.6km/h dir ONO 22.5km/h dir N 11.9° 0 41.8 1016 1018.1 1019.7 33% 61% 92% 912 92 678
14/07/20 11.7° 20.6° 28.3° 10.6° 20.7° 33.3° 3.4km/h dir O 24.1km/h dir O 11.7° 0 41.8 1012.6 1014.6 1016.2 32% 60% 92% 1158 80 167
15/07/20 14.7° 17.9° 21.7° 13.3° 18° 24.4° 1.9km/h dir OSO 16.1km/h dir SO 14.7° 1.4 43.2 6mm/h 1012.6 1014.9 1018.7 66% 80% 90% 554 30 499
16/07/20 15.6° 18.7° 22.6° 15.6° 19.4° 26.7° 4.5km/h dir O 22.5km/h dir N 15.6° 0 43.2 1018.6 1019.2 1019.8 60% 77.1% 90% 1106 48 686
17/07/20 16.2° 18.8° 22° 14.4° 19.2° 26.1° 8.7km/h dir ONO 33.8km/h dir N 16.3° 0 43.2 1018 1018.6 1019.7 64% 78.4% 89% 824 49 599
18/07/20 12.3° 20.5° 27.9° 10.6° 20.6° 31.1° 7.9km/h dir ONO 33.8km/h dir N 12.3° 0 43.2 1014.8 1016.6 1018.5 39% 66.6% 95% 900 89 341
19/07/20 11.6° 21.5° 30.6° 10° 21.3° 33.9° 3.2km/h dir NNE 24.1km/h dir ONO 11.6° 0 43.2 1013.5 1014.9 1016 33% 62.6% 94% 909 89 707
20/07/20 13.2° 24.2° 33.9° 11.7° 24° 36.7° 1.9km/h dir NE 19.3km/h dir SO 13.2° 0 43.2 1013.5 1014.5 1015.6 29% 58% 90% 898 88 009
21/07/20 17.3° 24.4° 33° 15.6° 24.7° 36.1° 3.1km/h dir N 20.9km/h dir NE 17.3° 1.6 44.8 20.4mm/h 1015.4 1016.9 1018.5 40% 65.2% 90% 1072 80 399
22/07/20 18° 22.1° 30.7° 17.2° 22.9° 35° 3.1km/h dir SO 19.3km/h dir OSO 18° 2.8 47.6 9.2mm/h 1015.9 1017.3 1018.6 53% 84.2% 96% 1092 57 303
23/07/20 17.3° 22.9° 30.2° 17.2° 23.9° 34.4° 2.4km/h dir O 19.3km/h dir ONO 17.3° 0 47.6 1011.7 1014.7 1017.1 35% 73.7% 96% 888 77 981
24/07/20 17.8° 23.6° 30.4° 15.6° 23.7° 35° 3.5km/h dir O 22.5km/h dir SO 17.8° 0 47.6 1011.5 1012.5 1013.6 31% 58.3% 86% 937 81 927
25/07/20 13.5° 22.6° 30.7° 12.2° 22.8° 33.9° 1.8km/h dir SE 17.7km/h dir SO 13.5° 0 47.6 1009.6 1012.6 1014.4 32% 61.7% 90% 928 80 562
26/07/20 18.7° 24° 30.5° 17.2° 24.4° 33.9° 3.5km/h dir NNE 24.1km/h dir ONO 18.7° 0 47.6 1010.4 1013.7 1016.2 39% 62.3% 82% 1146 77 152
27/07/20 15.2° 26.3° 36.2° 13.9° 26.4° 38.9° 6km/h dir SSE 32.2km/h dir SSE 15.2° 0 47.6 1009.6 1013.4 1016.2 28% 58.1% 92% 879 82 921
28/07/20 20.2° 26.1° 30.2° 17.2° 26.3° 34.4° 6.3km/h dir O 27.4km/h dir ONO 20.2° 0 47.6 1012 1013.9 1016.4 52% 58.2% 72% 1086 70 860
29/07/20 17.9° 24.4° 31.2° 16.7° 25° 34.4° 5.5km/h dir ONO 19.3km/h dir NNE 17.9° 0 47.6 1015.1 1016.7 1018.4 29% 52.1% 74% 881 83 971
30/07/20 15.6° 25.6° 36.1° 13.9° 25.7° 38.9° 2.4km/h dir NNE 19.3km/h dir SE 15.7° 0 47.6 1012.5 1015.2 1017.3 35% 56.4% 81% 837 78 959
31/07/20 23.1° 30.7° 39° 20.6° 30.3° 42.2° 6.9km/h dir SE 32.2km/h dir 0 23.1° 0 47.6 1009.8 1012.9 1014.5 24% 45.4% 66% 838 79 384

RETOUR ACCUEIL


Date de création : 01/08/2020 : 22:40
Catégorie : ANNEE 2020 - MOIS PASSES - JUILLET 2020
Page lue 97 fois


Réactions à cet article


Personne n'a encore laissé de commentaire.
Soyez donc le premier !